Time;durP1;ratioP1;P1;durP2;ratioP2;P2;SDS_P1;SDS_P2;PMS_P1;PMS_P2;Temp;Humidity;BMP_temperature;BMP_pressure;BME280_temperature;BME280_humidity;BME280_pressure;Samples;Min_cycle;Max_cycle;Signal;HPM_P1;HPM_P2
2021/08/25 00:00:43;;;;;;;10.87;5.20;;;11.20;99.90;;;;;;4447202;32;20207;-72
2021/08/25 00:03:11;;;;;;;10.13;4.57;;;11.20;99.90;;;;;;4442258;32;20198;-76
2021/08/25 00:05:38;;;;;;;10.87;5.00;;;11.20;99.90;;;;;;4441478;32;20153;-76
2021/08/25 00:08:06;;;;;;;12.13;5.67;;;11.10;99.90;;;;;;4441688;32;20394;-76
2021/08/25 00:10:33;;;;;;;9.83;4.67;;;11.10;99.90;;;;;;4441678;32;20142;-75
2021/08/25 00:13:03;;;;;;;12.33;5.00;;;11.10;99.90;;;;;;4441831;32;20143;-76
2021/08/25 00:15:30;;;;;;;9.93;4.53;;;11.10;99.90;;;;;;4441791;32;20161;-76
2021/08/25 00:17:56;;;;;;;10.57;4.83;;;11.00;99.90;;;;;;4442038;32;20221;-75
2021/08/25 00:20:23;;;;;;;10.10;4.53;;;11.00;99.90;;;;;;4441841;32;20142;-75
2021/08/25 00:22:50;;;;;;;11.40;5.23;;;11.00;99.90;;;;;;4440298;32;20127;-75
2021/08/25 00:25:17;;;;;;;11.63;5.33;;;11.00;99.90;;;;;;4440303;32;20123;-73
2021/08/25 00:27:44;;;;;;;9.93;4.60;;;11.00;99.90;;;;;;4442451;32;20178;-75
2021/08/25 00:30:12;;;;;;;10.83;5.07;;;11.00;99.90;;;;;;4449573;32;20357;-73
2021/08/25 00:32:38;;;;;;;12.67;5.00;;;10.90;99.90;;;;;;4440024;32;20135;-74
2021/08/25 00:35:05;;;;;;;9.90;4.83;;;10.90;99.90;;;;;;4441892;32;20197;-75
2021/08/25 00:37:32;;;;;;;12.50;4.83;;;10.90;99.90;;;;;;4441702;32;20123;-74
2021/08/25 00:39:59;;;;;;;12.90;5.23;;;10.90;99.90;;;;;;4441420;32;20378;-75
2021/08/25 00:42:26;;;;;;;9.73;5.10;;;10.90;99.90;;;;;;4440151;32;20154;-75
2021/08/25 00:44:53;;;;;;;10.27;4.80;;;10.90;99.90;;;;;;4439934;32;20157;-75
2021/08/25 00:47:20;;;;;;;12.70;4.97;;;10.80;99.90;;;;;;4439799;32;20172;-74
2021/08/25 00:49:47;;;;;;;10.13;4.80;;;10.80;99.90;;;;;;4440457;32;20183;-74
2021/08/25 00:52:14;;;;;;;10.03;4.70;;;10.80;99.90;;;;;;4440800;32;20176;-74
2021/08/25 00:54:41;;;;;;;12.43;5.10;;;10.80;99.90;;;;;;4440018;32;20172;-73
2021/08/25 00:57:08;;;;;;;10.63;4.73;;;10.70;99.90;;;;;;4441470;32;20207;-74
2021/08/25 00:59:35;;;;;;;12.73;5.30;;;10.70;99.90;;;;;;4441073;32;20123;-75
2021/08/25 01:02:13;;;;;;;10.53;5.53;;;10.70;99.90;;;;;;4441053;32;20142;-74
2021/08/25 01:04:48;;;;;;;11.57;5.30;;;10.70;99.90;;;;;;4448814;32;20146;-75
2021/08/25 01:07:16;;;;;;;12.37;5.23;;;10.70;99.90;;;;;;4440787;32;20130;-75
2021/08/25 01:09:43;;;;;;;11.33;4.83;;;10.60;99.90;;;;;;4438973;32;20158;-74
2021/08/25 01:12:10;;;;;;;10.70;4.90;;;10.60;99.90;;;;;;4440055;32;20175;-75
2021/08/25 01:14:40;;;;;;;9.77;4.73;;;10.60;99.90;;;;;;4440703;32;20192;-75
2021/08/25 01:17:09;;;;;;;12.77;5.43;;;10.60;99.90;;;;;;4439673;32;20399;-75
2021/08/25 01:19:50;;;;;;;10.17;4.80;;;10.50;99.90;;;;;;4438996;32;20236;-75
2021/08/25 01:22:21;;;;;;;11.60;5.17;;;10.50;99.90;;;;;;4440767;32;20168;-74
2021/08/25 01:24:49;;;;;;;12.43;5.50;;;10.50;99.90;;;;;;4440649;32;20364;-74
2021/08/25 01:27:18;;;;;;;14.53;5.30;;;10.50;99.90;;;;;;4440853;32;20127;-74
2021/08/25 01:29:46;;;;;;;11.93;5.40;;;10.50;99.90;;;;;;4440711;32;20186;-74
2021/08/25 01:32:13;;;;;;;11.13;5.10;;;10.50;99.90;;;;;;4440534;32;20177;-74
2021/08/25 01:34:53;;;;;;;11.20;4.97;;;10.50;99.90;;;;;;4440088;32;20195;-74
2021/08/25 01:37:21;;;;;;;12.27;5.07;;;10.40;99.90;;;;;;4440559;32;20127;-73
2021/08/25 01:39:49;;;;;;;11.80;5.00;;;10.40;99.90;;;;;;4448552;32;20256;-74
2021/08/25 01:42:19;;;;;;;9.90;4.90;;;10.40;99.90;;;;;;4438248;32;20127;-73
2021/08/25 01:44:48;;;;;;;11.63;5.10;;;10.40;99.90;;;;;;4438804;32;20210;-74
2021/08/25 01:47:16;;;;;;;11.83;5.27;;;10.40;99.90;;;;;;4438500;32;20196;-74
2021/08/25 01:49:43;;;;;;;12.07;5.20;;;10.30;99.90;;;;;;4440442;32;20123;-74
2021/08/25 01:52:14;;;;;;;10.73;5.23;;;10.30;99.90;;;;;;4440441;32;20131;-75
2021/08/25 01:54:42;;;;;;;9.57;5.27;;;10.30;99.90;;;;;;4440156;32;20149;-74
2021/08/25 01:57:09;;;;;;;12.70;5.63;;;10.30;99.90;;;;;;4438990;32;20131;-74
2021/08/25 01:59:37;;;;;;;11.33;5.40;;;10.20;99.90;;;;;;4440342;32;20183;-75
2021/08/25 02:02:04;;;;;;;10.93;4.80;;;10.20;99.90;;;;;;4440079;32;20514;-75
2021/08/25 02:04:32;;;;;;;9.43;4.90;;;10.20;99.90;;;;;;4439756;32;20180;-75
2021/08/25 02:06:59;;;;;;;11.43;5.43;;;10.20;99.90;;;;;;4438682;32;20131;-75
2021/08/25 02:09:25;;;;;;;11.60;5.50;;;10.20;99.90;;;;;;4441682;32;20211;-75
2021/08/25 02:11:53;;;;;;;9.90;5.23;;;10.20;99.90;;;;;;4444842;32;20501;-75
2021/08/25 02:14:19;;;;;;;12.73;5.63;;;10.20;99.90;;;;;;4439971;32;20183;-75
2021/08/25 02:16:46;;;;;;;10.57;5.50;;;10.20;99.90;;;;;;4440165;32;20180;-75
2021/08/25 02:19:13;;;;;;;11.57;5.30;;;10.20;99.90;;;;;;4438649;32;20215;-75
2021/08/25 02:21:40;;;;;;;10.80;5.53;;;10.20;99.90;;;;;;4438609;32;20124;-74
2021/08/25 02:24:07;;;;;;;12.13;5.43;;;10.10;99.90;;;;;;4439411;32;20576;-75
2021/08/25 02:26:34;;;;;;;11.13;5.50;;;10.10;99.90;;;;;;4440331;32;20241;-75
2021/08/25 02:29:01;;;;;;;12.97;5.43;;;10.10;99.90;;;;;;4440193;32;20172;-75
2021/08/25 02:31:27;;;;;;;14.10;5.50;;;10.00;99.90;;;;;;4441437;32;20496;-75
2021/08/25 02:33:54;;;;;;;13.07;5.57;;;10.00;99.90;;;;;;4443148;32;20127;-75
2021/08/25 02:36:21;;;;;;;13.13;5.57;;;10.00;99.90;;;;;;4443018;32;20176;-75
2021/08/25 02:38:49;;;;;;;13.80;5.77;;;10.00;99.90;;;;;;4441117;32;20153;-74
2021/08/25 02:41:18;;;;;;;11.43;5.10;;;9.90;99.90;;;;;;4441982;32;20135;-75
2021/08/25 02:43:45;;;;;;;11.93;5.83;;;9.90;99.90;;;;;;4442295;32;20662;-75
2021/08/25 02:46:12;;;;;;;11.00;5.03;;;9.90;99.90;;;;;;4450442;32;20155;-74
2021/08/25 02:48:40;;;;;;;11.27;5.50;;;9.90;99.90;;;;;;4441162;32;20123;-74
2021/08/25 02:51:07;;;;;;;13.80;5.43;;;9.90;99.90;;;;;;4441213;32;20197;-74
2021/08/25 02:53:33;;;;;;;10.40;5.03;;;9.90;99.90;;;;;;4441322;32;20123;-74
2021/08/25 02:56:00;;;;;;;12.20;5.03;;;9.90;99.90;;;;;;4440507;32;20131;-74
2021/08/25 02:58:27;;;;;;;12.20;5.57;;;9.80;99.90;;;;;;4442747;32;20195;-74
2021/08/25 03:00:54;;;;;;;13.53;5.47;;;9.80;99.90;;;;;;4442814;32;20153;-74
2021/08/25 03:03:22;;;;;;;10.70;4.97;;;9.80;99.90;;;;;;4441160;32;20437;-75
2021/08/25 03:05:49;;;;;;;11.43;5.63;;;9.80;99.90;;;;;;4442702;32;20124;-75
2021/08/25 03:08:16;;;;;;;15.77;5.80;;;9.70;99.90;;;;;;4442577;32;20275;-74
2021/08/25 03:10:43;;;;;;;11.77;5.93;;;9.70;99.90;;;;;;4440870;32;20492;-75
2021/08/25 03:13:10;;;;;;;21.33;6.37;;;9.70;99.90;;;;;;4442394;32;20456;-75
2021/08/25 03:15:37;;;;;;;12.77;6.60;;;9.60;99.90;;;;;;4440899;32;20484;-75
2021/08/25 03:18:04;;;;;;;11.40;5.90;;;9.60;99.90;;;;;;4449012;32;20209;-74
2021/08/25 03:20:31;;;;;;;11.60;5.33;;;9.60;99.90;;;;;;4443188;32;20151;-75
2021/08/25 03:22:58;;;;;;;15.00;6.20;;;9.50;99.90;;;;;;4442589;32;20441;-75
2021/08/25 03:25:25;;;;;;;12.73;5.67;;;9.50;99.90;;;;;;4440539;32;20171;-74
2021/08/25 03:27:51;;;;;;;13.77;6.37;;;9.50;99.90;;;;;;4442526;32;20123;-75
2021/08/25 03:30:20;;;;;;;12.83;5.53;;;9.50;99.90;;;;;;4439674;32;20184;-75
2021/08/25 03:32:47;;;;;;;12.70;6.23;;;9.50;99.90;;;;;;4442438;32;20189;-75
2021/08/25 03:35:14;;;;;;;14.43;6.50;;;9.50;99.90;;;;;;4442474;32;20441;-75
2021/08/25 03:37:41;;;;;;;15.33;5.57;;;9.40;99.90;;;;;;4441730;32;20179;-75
2021/08/25 03:40:09;;;;;;;10.40;5.50;;;9.40;99.90;;;;;;4440671;32;20151;-75
2021/08/25 03:42:35;;;;;;;13.40;6.23;;;9.30;99.90;;;;;;4440864;32;20123;-75
2021/08/25 03:45:03;;;;;;;12.67;6.20;;;9.30;99.90;;;;;;4442230;32;20143;-76
2021/08/25 03:47:31;;;;;;;12.80;6.33;;;9.30;99.90;;;;;;4443537;32;20438;-75
2021/08/25 03:49:59;;;;;;;15.87;6.60;;;9.40;99.90;;;;;;4448819;32;20135;-76
2021/08/25 03:52:26;;;;;;;13.20;6.50;;;9.30;99.90;;;;;;4442262;32;20131;-76
2021/08/25 03:54:53;;;;;;;14.33;6.33;;;9.30;99.90;;;;;;4441927;32;20218;-75
2021/08/25 03:57:20;;;;;;;15.07;6.50;;;9.30;99.90;;;;;;4441813;32;20206;-75
2021/08/25 03:59:46;;;;;;;14.47;6.20;;;9.30;99.90;;;;;;4441264;32;20211;-75
2021/08/25 04:02:13;;;;;;;15.50;6.90;;;9.30;99.90;;;;;;4441867;32;20348;-75
2021/08/25 04:04:40;;;;;;;12.77;6.23;;;9.20;99.90;;;;;;4442118;32;20452;-75
2021/08/25 04:07:07;;;;;;;14.40;6.90;;;9.30;99.90;;;;;;4439176;32;20162;-75
2021/08/25 04:09:34;;;;;;;14.40;6.77;;;9.30;99.90;;;;;;4440148;32;20212;-75
2021/08/25 04:12:01;;;;;;;16.00;6.40;;;9.30;99.90;;;;;;4441642;32;20139;-75
2021/08/25 04:14:27;;;;;;;18.20;7.00;;;9.30;99.90;;;;;;4440866;32;20465;-75
2021/08/25 04:16:54;;;;;;;13.00;6.27;;;9.40;99.90;;;;;;4440772;32;20409;-75
2021/08/25 04:19:21;;;;;;;14.27;6.73;;;9.40;99.90;;;;;;4439324;32;20123;-75
2021/08/25 04:21:48;;;;;;;15.07;6.73;;;9.50;99.90;;;;;;4441702;32;20149;-75
2021/08/25 04:24:14;;;;;;;13.77;7.00;;;9.60;99.90;;;;;;4441774;32;20468;-75
2021/08/25 04:26:41;;;;;;;15.43;7.17;;;9.60;99.90;;;;;;4448338;32;20142;-76
2021/08/25 04:29:08;;;;;;;14.37;7.20;;;9.70;99.90;;;;;;4441535;32;20184;-75
2021/08/25 04:31:35;;;;;;;20.10;7.13;;;9.70;99.90;;;;;;4441568;32;20183;-75
2021/08/25 04:34:01;;;;;;;14.03;7.50;;;9.70;99.90;;;;;;4439849;32;20130;-75
2021/08/25 04:36:28;;;;;;;14.97;6.97;;;9.60;99.90;;;;;;4440912;32;20126;-75
2021/08/25 04:38:55;;;;;;;17.20;6.93;;;9.60;99.90;;;;;;4440543;32;20466;-75
2021/08/25 04:41:22;;;;;;;13.77;6.60;;;9.70;99.90;;;;;;4441310;32;20176;-75
2021/08/25 04:43:49;;;;;;;15.53;6.90;;;9.80;99.90;;;;;;4441005;32;20123;-74
2021/08/25 04:46:16;;;;;;;13.23;6.50;;;9.90;99.90;;;;;;4440456;32;20123;-74
2021/08/25 04:48:44;;;;;;;13.07;6.73;;;10.10;99.90;;;;;;4440038;32;20179;-75
2021/08/25 04:51:11;;;;;;;14.83;6.80;;;10.10;99.90;;;;;;4440867;32;20411;-74
2021/08/25 04:53:38;;;;;;;15.20;6.73;;;10.20;99.90;;;;;;4440654;32;20435;-75
2021/08/25 04:56:06;;;;;;;13.83;7.00;;;10.30;99.90;;;;;;4442904;32;20174;-75
2021/08/25 04:58:34;;;;;;;14.97;6.80;;;10.30;99.90;;;;;;4445450;32;20150;-75
2021/08/25 05:01:01;;;;;;;16.13;7.13;;;10.30;99.90;;;;;;4440172;32;20183;-75
2021/08/25 05:03:28;;;;;;;15.30;6.63;;;10.30;99.90;;;;;;4440664;32;20127;-76
2021/08/25 05:05:55;;;;;;;14.73;6.70;;;10.40;99.90;;;;;;4440066;32;20138;-74
2021/08/25 05:08:22;;;;;;;11.70;6.33;;;10.40;99.90;;;;;;4440205;32;20166;-72
2021/08/25 05:10:49;;;;;;;15.83;6.37;;;10.40;99.90;;;;;;4439808;32;20150;-76
2021/08/25 05:13:16;;;;;;;15.77;6.67;;;10.40;99.90;;;;;;4439111;32;20127;-75
2021/08/25 05:15:46;;;;;;;15.17;6.63;;;10.40;99.90;;;;;;4440068;32;20122;-74
2021/08/25 05:18:13;;;;;;;13.70;7.13;;;10.50;99.90;;;;;;4440489;32;20184;-75
2021/08/25 05:20:40;;;;;;;15.33;7.07;;;10.50;99.90;;;;;;4439203;32;20127;-74
2021/08/25 05:23:06;;;;;;;18.40;6.97;;;10.60;99.90;;;;;;4438867;32;20152;-75
2021/08/25 05:25:33;;;;;;;12.70;6.77;;;10.70;99.90;;;;;;4438859;32;20184;-75
2021/08/25 05:28:00;;;;;;;17.17;7.20;;;10.60;99.90;;;;;;4440654;32;20189;-75
2021/08/25 05:30:27;;;;;;;13.90;6.87;;;10.70;99.90;;;;;;4439078;32;20142;-75
2021/08/25 05:32:53;;;;;;;11.90;6.63;;;10.70;99.90;;;;;;4446870;32;20142;-76
2021/08/25 05:35:22;;;;;;;15.20;7.13;;;10.80;99.90;;;;;;4440825;32;20158;-75
2021/08/25 05:37:50;;;;;;;16.13;6.83;;;10.90;99.90;;;;;;4440491;32;20234;-74
2021/08/25 05:40:17;;;;;;;15.07;6.73;;;10.90;99.90;;;;;;4438660;32;20127;-75
2021/08/25 05:42:45;;;;;;;14.47;6.40;;;10.80;99.90;;;;;;4440549;32;20446;-75
2021/08/25 05:45:12;;;;;;;16.10;6.43;;;10.90;99.90;;;;;;4439912;32;20180;-75
2021/08/25 05:47:39;;;;;;;14.27;6.40;;;11.00;99.90;;;;;;4440462;32;20419;-75
2021/08/25 05:50:08;;;;;;;16.17;7.10;;;11.10;99.90;;;;;;4440599;32;20214;-76
2021/08/25 05:52:34;;;;;;;17.20;6.83;;;11.10;99.90;;;;;;4440565;32;20213;-76
2021/08/25 05:55:02;;;;;;;17.63;6.70;;;11.10;99.90;;;;;;4438618;32;20249;-75
2021/08/25 05:57:28;;;;;;;17.73;7.00;;;11.00;99.90;;;;;;4440103;32;20426;-75
2021/08/25 05:59:56;;;;;;;15.57;7.00;;;11.10;99.90;;;;;;4440427;32;20176;-75
2021/08/25 06:02:23;;;;;;;16.40;7.17;;;11.30;99.90;;;;;;4438392;32;20225;-75
2021/08/25 06:04:50;;;;;;;16.43;6.93;;;11.30;99.90;;;;;;4440192;32;20175;-75
2021/08/25 06:07:17;;;;;;;14.10;6.70;;;11.50;99.90;;;;;;4438696;32;20143;-75
2021/08/25 06:09:44;;;;;;;14.10;7.07;;;11.50;99.90;;;;;;4438200;32;20223;-76
2021/08/25 06:12:11;;;;;;;16.57;6.70;;;11.60;99.90;;;;;;4439553;32;20447;-75
2021/08/25 06:14:38;;;;;;;15.27;7.00;;;11.80;99.90;;;;;;4438680;32;20172;-75
2021/08/25 06:17:05;;;;;;;14.40;6.67;;;11.80;99.90;;;;;;4439075;32;20407;-76
2021/08/25 06:19:32;;;;;;;15.50;6.50;;;11.80;99.90;;;;;;4440392;32;20235;-75
2021/08/25 06:21:59;;;;;;;14.63;6.40;;;12.10;99.90;;;;;;4439639;32;20123;-76
2021/08/25 06:24:26;;;;;;;17.03;6.97;;;12.00;99.90;;;;;;4438424;32;20180;-73
2021/08/25 06:26:53;;;;;;;14.73;6.43;;;12.20;99.90;;;;;;4439205;32;20198;-77
2021/08/25 06:29:19;;;;;;;14.43;6.80;;;12.40;99.90;;;;;;4445501;32;20480;-76
2021/08/25 06:31:46;;;;;;;15.00;6.20;;;12.60;99.90;;;;;;4438302;32;20361;-78
2021/08/25 06:34:13;;;;;;;15.73;6.40;;;12.70;99.90;;;;;;4438510;32;20171;-77
2021/08/25 06:36:40;;;;;;;15.77;6.50;;;12.70;99.90;;;;;;4438978;32;20382;-76
2021/08/25 06:39:08;;;;;;;14.33;6.43;;;12.80;99.90;;;;;;4439959;32;20544;-76
2021/08/25 06:41:35;;;;;;;12.07;6.27;;;12.90;99.90;;;;;;4439719;32;20135;-75
2021/08/25 06:44:02;;;;;;;16.73;6.40;;;12.90;99.90;;;;;;4439727;32;20189;-75
2021/08/25 06:46:28;;;;;;;15.93;7.20;;;12.90;99.90;;;;;;4437595;32;20171;-74
2021/08/25 06:48:55;;;;;;;14.23;6.97;;;12.90;99.90;;;;;;4437874;32;20576;-74
2021/08/25 06:51:22;;;;;;;12.50;6.37;;;12.90;99.90;;;;;;4439082;32;20139;-76
2021/08/25 06:53:49;;;;;;;12.27;6.40;;;13.00;99.90;;;;;;4438191;32;20171;-77
2021/08/25 06:56:16;;;;;;;17.30;6.80;;;13.10;99.90;;;;;;4438397;32;20450;-77
2021/08/25 06:58:43;;;;;;;14.43;6.57;;;13.30;99.90;;;;;;4439529;32;20492;-77
2021/08/25 07:01:09;;;;;;;14.60;6.60;;;13.40;99.90;;;;;;4437910;32;20199;-76
2021/08/25 07:03:37;;;;;;;16.27;6.57;;;13.50;99.90;;;;;;4439942;32;20134;-77
2021/08/25 07:06:04;;;;;;;17.17;7.03;;;13.40;99.90;;;;;;4439946;32;20158;-77
2021/08/25 07:08:30;;;;;;;15.37;6.93;;;13.30;99.90;;;;;;4438536;32;20195;-77
2021/08/25 07:10:57;;;;;;;13.03;6.37;;;13.30;99.90;;;;;;4439108;32;20184;-76
2021/08/25 07:13:24;;;;;;;14.87;6.40;;;13.20;99.90;;;;;;4439634;32;20131;-76
2021/08/25 07:15:51;;;;;;;14.67;6.67;;;13.20;99.90;;;;;;4437753;32;20193;-76
2021/08/25 07:18:18;;;;;;;15.03;6.27;;;13.30;99.90;;;;;;4441465;32;20157;-76
2021/08/25 07:20:45;;;;;;;13.43;6.80;;;13.30;99.90;;;;;;4440440;32;20131;-76
2021/08/25 07:23:12;;;;;;;14.20;6.70;;;13.30;99.90;;;;;;4440714;32;20509;-78
2021/08/25 07:25:40;;;;;;;16.63;6.23;;;13.30;99.90;;;;;;4440169;32;20208;-77
2021/08/25 07:28:07;;;;;;;11.70;5.80;;;13.30;99.90;;;;;;4440663;32;20452;-77
2021/08/25 07:30:34;;;;;;;15.37;6.30;;;13.40;99.90;;;;;;4442124;32;20167;-77
2021/08/25 07:33:01;;;;;;;13.27;5.90;;;13.50;99.90;;;;;;4441795;32;20213;-78
2021/08/25 07:35:31;;;;;;;13.47;6.30;;;13.50;99.90;;;;;;4442098;32;20162;-77
2021/08/25 07:37:58;;;;;;;11.30;5.47;;;13.70;99.90;;;;;;4440865;32;20252;-77
2021/08/25 07:40:25;;;;;;;13.90;5.60;;;13.90;99.90;;;;;;4440390;32;20123;-77
2021/08/25 07:42:52;;;;;;;12.47;5.33;;;13.90;99.90;;;;;;4440947;32;20259;-78
2021/08/25 07:45:19;;;;;;;11.07;5.13;;;14.10;99.90;;;;;;4440708;32;20188;-77
2021/08/25 07:47:46;;;;;;;10.33;4.97;;;14.30;99.90;;;;;;4442186;32;20451;-77
2021/08/25 07:50:14;;;;;;;10.23;4.93;;;14.20;99.90;;;;;;4440553;32;20138;-77
2021/08/25 07:52:41;;;;;;;10.60;4.83;;;14.40;99.90;;;;;;4442041;32;20142;-77
2021/08/25 07:55:09;;;;;;;12.60;4.80;;;14.50;99.90;;;;;;4440357;32;20187;-78
2021/08/25 07:57:35;;;;;;;11.60;4.60;;;14.60;99.90;;;;;;4442237;32;20463;-77
2021/08/25 08:00:03;;;;;;;9.67;4.57;;;14.70;99.90;;;;;;4441922;32;20127;-78
2021/08/25 08:02:33;;;;;;;11.57;4.93;;;14.70;99.90;;;;;;4441947;32;20137;-78
2021/08/25 08:05:01;;;;;;;9.40;3.70;;;14.80;99.90;;;;;;4440518;32;20198;-77
2021/08/25 08:07:28;;;;;;;10.60;4.57;;;15.30;99.90;;;;;;4440627;32;20147;-77
2021/08/25 08:09:54;;;;;;;9.57;4.37;;;16.20;99.90;;;;;;4440725;32;20174;-78
2021/08/25 08:12:25;;;;;;;8.93;4.47;;;16.90;99.90;;;;;;4440821;32;20138;-76
2021/08/25 08:14:52;;;;;;;10.60;4.40;;;17.20;99.90;;;;;;4440980;32;20174;-76
2021/08/25 08:17:21;;;;;;;9.67;4.17;;;16.90;99.90;;;;;;4442037;32;20161;-76
2021/08/25 08:19:49;;;;;;;8.80;4.30;;;16.70;99.90;;;;;;4441862;32;20177;-77
2021/08/25 08:22:16;;;;;;;9.53;4.63;;;16.30;99.90;;;;;;4440024;32;20131;-77
2021/08/25 08:24:42;;;;;;;10.83;4.20;;;16.10;99.90;;;;;;4440450;32;20456;-78
2021/08/25 08:27:10;;;;;;;11.17;4.47;;;15.90;99.90;;;;;;4442180;32;20174;-79
2021/08/25 08:29:37;;;;;;;12.20;4.70;;;15.90;99.90;;;;;;4439869;32;20172;-77
2021/08/25 08:32:04;;;;;;;8.53;4.33;;;15.80;99.90;;;;;;4439834;32;20510;-76
2021/08/25 08:34:35;;;;;;;9.83;4.40;;;15.90;99.90;;;;;;4441798;32;20444;-77
2021/08/25 08:37:02;;;;;;;9.60;4.33;;;16.30;99.90;;;;;;4441622;32;20368;-77
2021/08/25 08:39:28;;;;;;;11.70;4.47;;;16.40;99.90;;;;;;4439548;32;20433;-76
2021/08/25 08:41:55;;;;;;;8.50;4.37;;;16.30;99.90;;;;;;4440924;32;20462;-76
2021/08/25 08:44:25;;;;;;;9.47;4.63;;;16.50;99.90;;;;;;4440091;32;20171;-77
2021/08/25 08:46:52;;;;;;;7.87;3.70;;;16.60;99.90;;;;;;4439346;32;20214;-76
2021/08/25 08:49:19;;;;;;;9.30;4.20;;;16.90;99.90;;;;;;4441108;32;20169;-77
2021/08/25 08:51:46;;;;;;;9.50;4.20;;;17.40;99.90;;;;;;4440875;32;20152;-75
2021/08/25 08:54:15;;;;;;;10.00;3.80;;;18.30;99.90;;;;;;4440183;32;20127;-76
2021/08/25 08:56:42;;;;;;;5.63;3.33;;;19.10;99.90;;;;;;4439373;32;20180;-77
2021/08/25 08:59:08;;;;;;;7.10;3.40;;;19.90;99.90;;;;;;4439065;32;20489;-78
2021/08/25 09:01:35;;;;;;;8.40;3.50;;;20.80;99.90;;;;;;4440685;32;20475;-77
2021/08/25 09:04:03;;;;;;;7.40;3.47;;;21.30;96.60;;;;;;4439326;32;20489;-77
2021/08/25 09:06:44;;;;;;;8.80;3.37;;;21.60;95.40;;;;;;4441013;32;20181;-76
2021/08/25 09:09:11;;;;;;;6.83;3.40;;;21.60;94.30;;;;;;4439004;32;20282;-76
2021/08/25 09:11:52;;;;;;;6.57;3.37;;;20.90;93.70;;;;;;4440594;32;20202;-77
2021/08/25 09:14:19;;;;;;;6.10;3.40;;;20.30;94.70;;;;;;4439738;32;20215;-76
2021/08/25 09:16:46;;;;;;;7.80;3.47;;;19.80;95.80;;;;;;4438972;32;20181;-76
2021/08/25 09:19:16;;;;;;;8.07;3.77;;;19.50;97.20;;;;;;4438487;32;20183;-76
2021/08/25 09:21:45;;;;;;;7.73;3.50;;;19.40;97.00;;;;;;4439989;32;20138;-77
2021/08/25 09:24:13;;;;;;;6.90;3.30;;;19.60;99.40;;;;;;4438967;32;20127;-77
2021/08/25 09:27:07;;;;;;;7.17;3.67;;;19.50;99.70;;;;;;4438971;32;20191;-77
2021/08/25 09:29:36;;;;;;;15.73;4.80;;;19.30;97.60;;;;;;4439771;32;20165;-77
2021/08/25 09:32:25;;;;;;;8.50;3.53;;;19.10;97.30;;;;;;4438215;32;20138;-75
2021/08/25 09:34:57;;;;;;;8.10;3.60;;;18.70;94.70;;;;;;4439125;32;20176;-76
2021/08/25 09:37:25;;;;;;;5.87;3.10;;;18.20;96.80;;;;;;4440502;32;20131;-77
2021/08/25 09:39:59;;;;;;;6.40;3.30;;;18.30;97.40;;;;;;4439393;32;20150;-76
2021/08/25 09:42:45;;;;;;;6.50;3.40;;;18.30;96.50;;;;;;4437507;32;20156;-76
2021/08/25 09:45:14;;;;;;;6.27;3.40;;;18.90;95.80;;;;;;4438916;32;20131;-77
2021/08/25 09:47:49;;;;;;;6.63;3.40;;;18.90;93.50;;;;;;4438598;32;20151;-76
2021/08/25 09:50:19;;;;;;;7.73;3.60;;;18.60;95.00;;;;;;4438034;32;20122;-76
2021/08/25 09:52:47;;;;;;;7.27;3.70;;;18.70;96.00;;;;;;4437867;32;20162;-76
2021/08/25 09:55:16;;;;;;;7.50;3.63;;;18.70;95.50;;;;;;4438034;32;20127;-77
2021/08/25 09:57:44;;;;;;;6.80;3.90;;;18.50;97.30;;;;;;4440061;32;20380;-77
2021/08/25 10:00:12;;;;;;;10.43;3.83;;;18.60;97.80;;;;;;4440094;32;20183;-77
2021/08/25 10:02:41;;;;;;;9.63;3.90;;;18.80;97.40;;;;;;4437477;32;20200;-77
2021/08/25 10:05:09;;;;;;;8.60;3.90;;;18.90;98.40;;;;;;4438153;32;20150;-77
2021/08/25 10:07:36;;;;;;;9.87;3.97;;;18.90;98.20;;;;;;4439004;32;20131;-77
2021/08/25 10:10:04;;;;;;;11.27;4.93;;;18.50;96.80;;;;;;4438678;32;20170;-77
2021/08/25 10:12:31;;;;;;;10.10;4.47;;;18.60;97.80;;;;;;4439648;32;20464;-77
2021/08/25 10:14:57;;;;;;;10.33;4.10;;;18.60;96.90;;;;;;4439814;32;20425;-77
2021/08/25 10:17:41;;;;;;;10.07;4.07;;;18.70;98.10;;;;;;4438924;32;20152;-77
2021/08/25 10:20:34;;;;;;;10.50;4.17;;;18.60;97.90;;;;;;4437801;32;20213;-77
2021/08/25 10:23:02;;;;;;;9.87;4.10;;;18.50;97.20;;;;;;4438325;32;20183;-77
2021/08/25 10:25:29;;;;;;;7.20;3.60;;;18.30;97.10;;;;;;4437984;32;20230;-77
2021/08/25 10:28:08;;;;;;;7.40;3.60;;;18.20;98.10;;;;;;4439837;32;20123;-77
2021/08/25 10:30:47;;;;;;;7.50;3.40;;;18.20;96.80;;;;;;4437229;32;20153;-78
2021/08/25 10:33:14;;;;;;;7.63;3.80;;;18.00;96.50;;;;;;4439245;32;20154;-77
2021/08/25 10:35:43;;;;;;;8.40;3.60;;;18.20;97.80;;;;;;4440004;32;20512;-77
2021/08/25 10:38:29;;;;;;;7.13;3.53;;;18.80;99.90;;;;;;4438718;32;20555;-77
2021/08/25 10:41:01;;;;;;;8.30;3.50;;;19.50;95.10;;;;;;4439117;32;20135;-77
2021/08/25 10:43:35;;;;;;;6.63;3.60;;;19.40;95.50;;;;;;4437977;32;20130;-78
2021/08/25 10:46:04;;;;;;;7.40;3.33;;;19.20;96.30;;;;;;4439321;32;20131;-77
2021/08/25 10:48:40;;;;;;;5.27;2.97;;;19.10;95.50;;;;;;4439565;32;20573;-77
2021/08/25 10:51:28;;;;;;;6.00;3.13;;;19.10;95.50;;;;;;4439984;32;20127;-77
2021/08/25 10:53:55;;;;;;;6.73;3.27;;;18.70;95.50;;;;;;4440697;32;20242;-77
2021/08/25 10:56:35;;;;;;;7.80;3.30;;;19.10;96.00;;;;;;4442215;32;20265;-78
2021/08/25 10:59:05;;;;;;;8.43;3.27;;;19.80;93.70;;;;;;4442046;32;20135;-78
2021/08/25 11:01:43;;;;;;;5.57;2.73;;;20.20;93.10;;;;;;4440735;32;20126;-78
2021/08/25 11:04:15;;;;;;;5.50;2.93;;;19.90;93.20;;;;;;4441618;32;20127;-77
2021/08/25 11:06:43;;;;;;;5.57;2.70;;;19.50;93.20;;;;;;4440065;32;20128;-78
2021/08/25 11:09:11;;;;;;;5.37;2.77;;;19.20;94.60;;;;;;4441356;32;20218;-77
2021/08/25 11:11:38;;;;;;;4.00;2.40;;;18.90;94.80;;;;;;4440875;32;20146;-77
2021/08/25 11:14:05;;;;;;;6.50;2.80;;;19.10;96.00;;;;;;4440907;32;20197;-78
2021/08/25 11:16:32;;;;;;;3.93;2.50;;;19.40;95.60;;;;;;4442125;32;20203;-78
2021/08/25 11:18:59;;;;;;;4.87;2.40;;;19.60;94.70;;;;;;4441457;32;20176;-78
2021/08/25 11:21:26;;;;;;;4.27;2.10;;;19.80;95.30;;;;;;4441449;32;20331;-77
2021/08/25 11:23:54;;;;;;;3.87;1.80;;;19.30;94.30;;;;;;4442537;32;20160;-78
2021/08/25 11:26:21;;;;;;;5.23;2.10;;;19.00;95.60;;;;;;4442255;32;20188;-78
2021/08/25 11:28:48;;;;;;;3.77;1.83;;;18.70;96.40;;;;;;4442194;32;20126;-78
2021/08/25 11:31:25;;;;;;;4.17;2.30;;;18.50;96.70;;;;;;4440512;32;20168;-78
2021/08/25 11:33:53;;;;;;;3.83;1.90;;;18.70;98.50;;;;;;4440676;32;20186;-78
2021/08/25 11:36:20;;;;;;;4.33;2.00;;;18.80;98.60;;;;;;4440638;32;20192;-78
2021/08/25 11:38:46;;;;;;;3.93;2.00;;;18.80;97.70;;;;;;4440426;32;20147;-78
2021/08/25 11:41:13;;;;;;;2.63;1.70;;;18.80;97.90;;;;;;4440745;32;20130;-77
2021/08/25 11:43:47;;;;;;;3.20;1.80;;;18.80;96.60;;;;;;4441624;32;20166;-77
2021/08/25 11:46:24;;;;;;;3.47;1.90;;;18.70;96.90;;;;;;4440416;32;20123;-77
2021/08/25 11:48:52;;;;;;;4.10;1.90;;;18.80;96.80;;;;;;4441164;32;20169;-77
2021/08/25 11:51:19;;;;;;;2.60;1.63;;;18.90;97.60;;;;;;4441972;32;20593;-78
2021/08/25 11:53:47;;;;;;;4.83;1.90;;;18.50;97.20;;;;;;4442130;32;20470;-77
2021/08/25 11:56:13;;;;;;;4.80;2.07;;;18.40;96.80;;;;;;4440497;32;20143;-76
2021/08/25 11:58:41;;;;;;;3.77;1.97;;;18.40;96.80;;;;;;4440735;32;20214;-77
2021/08/25 12:01:26;;;;;;;3.23;1.60;;;18.40;96.10;;;;;;4440822;32;20123;-78
2021/08/25 12:03:54;;;;;;;2.57;1.60;;;18.30;97.80;;;;;;4440005;32;20460;-77
2021/08/25 12:06:21;;;;;;;5.60;2.03;;;18.40;96.90;;;;;;4442124;32;20211;-76
2021/08/25 12:08:50;;;;;;;4.93;1.83;;;18.60;96.40;;;;;;4441205;32;20193;-77
2021/08/25 12:11:19;;;;;;;3.63;1.60;;;18.50;96.70;;;;;;4442335;32;20444;-77
2021/08/25 12:13:48;;;;;;;2.67;1.43;;;18.60;97.10;;;;;;4442222;32;20421;-77
2021/08/25 12:16:33;;;;;;;3.43;1.60;;;18.60;97.30;;;;;;4442362;32;20426;-77
2021/08/25 12:19:02;;;;;;;3.10;1.87;;;18.80;97.20;;;;;;4441809;32;20223;-78
2021/08/25 12:21:32;;;;;;;4.23;1.70;;;19.00;96.30;;;;;;4440063;32;20189;-77
2021/08/25 12:24:02;;;;;;;3.37;1.60;;;19.20;96.90;;;;;;4441743;32;20131;-77
2021/08/25 12:26:31;;;;;;;4.17;1.60;;;19.40;95.90;;;;;;4441780;32;20136;-77
2021/08/25 12:29:00;;;;;;;3.17;1.50;;;19.10;95.00;;;;;;4440165;32;20187;-76
2021/08/25 12:31:29;;;;;;;3.70;1.60;;;19.00;95.30;;;;;;4440637;32;20135;-78
2021/08/25 12:34:11;;;;;;;2.53;1.60;;;18.60;95.20;;;;;;4441573;32;20138;-77
2021/08/25 12:36:41;;;;;;;4.80;1.50;;;18.50;96.30;;;;;;4441620;32;20131;-78
2021/08/25 12:39:09;;;;;;;3.60;1.53;;;18.70;96.70;;;;;;4441458;32;20150;-78
2021/08/25 12:41:46;;;;;;;2.73;1.40;;;18.90;96.70;;;;;;4440688;32;20183;-78
2021/08/25 12:44:14;;;;;;;3.03;1.60;;;19.00;96.80;;;;;;4440063;32;20156;-77
2021/08/25 12:46:53;;;;;;;2.30;1.50;;;19.00;95.80;;;;;;4440428;32;20198;-77
2021/08/25 12:49:22;;;;;;;3.33;1.50;;;18.90;95.70;;;;;;4441354;32;20187;-76